Time;durP1;ratioP1;P1;durP2;ratioP2;P2;SDS_P1;SDS_P2;PMS_P1;PMS_P2;Temp;Humidity;BMP_temperature;BMP_pressure;BME280_temperature;BME280_humidity;BME280_pressure;Samples;Min_cycle;Max_cycle;Signal;HPM_P1;HPM_P2
2022/04/26 03:36:51;;;;;;;2.45;2.00;;;;;14.30;101482.00;;;;5039882;28;20811;-79
2022/04/26 03:39:18;;;;;;;2.22;1.83;;;;;14.30;101487.00;;;;5035237;28;20203;-79
2022/04/26 03:41:45;;;;;;;4.95;2.30;;;;;14.30;101478.00;;;;5038068;28;20197;-78
2022/04/26 03:44:12;;;;;;;3.42;2.42;;;;;14.30;101473.00;;;;5033668;28;20192;-79
2022/04/26 03:46:39;;;;;;;2.88;1.73;;;;;14.30;101483.00;;;;5038394;28;20768;-79
2022/04/26 03:49:07;;;;;;;3.72;1.92;;;;;14.30;101487.00;;;;5039804;28;20254;-79
2022/04/26 03:51:34;;;;;;;3.55;2.30;;;;;14.30;101484.00;;;;5033836;28;20203;-79
2022/04/26 03:54:02;;;;;;;2.60;2.25;;;;;14.30;101488.00;;;;5034107;28;20239;-79
2022/04/26 03:56:30;;;;;;;2.55;2.35;;;;;14.40;101486.00;;;;5036961;28;20514;-79
2022/04/26 03:58:57;;;;;;;2.92;2.25;;;;;14.40;101494.00;;;;5043225;28;20727;-78
2022/04/26 04:01:27;;;;;;;5.50;2.05;;;;;14.30;101495.00;;;;5048895;28;20199;-79
2022/04/26 04:03:54;;;;;;;4.88;2.47;;;;;14.40;101491.00;;;;5048591;28;20584;-77
2022/04/26 04:06:22;;;;;;;3.05;2.28;;;;;14.40;101489.00;;;;5042346;28;20187;-79
2022/04/26 04:08:49;;;;;;;2.75;2.15;;;;;14.40;101492.00;;;;5049370;28;20192;-79
2022/04/26 04:11:19;;;;;;;2.78;2.20;;;;;14.40;101492.00;;;;5043372;28;20731;-78
2022/04/26 04:13:46;;;;;;;3.40;2.40;;;;;14.40;101492.00;;;;5037934;28;20633;-78
2022/04/26 04:16:13;;;;;;;3.50;2.33;;;;;14.40;101498.00;;;;5043030;28;20192;-78
2022/04/26 04:21:25;;;;;;;3.80;2.78;;;;;14.40;101498.00;;;;5048975;28;20241;-78
2022/04/26 04:23:53;;;;;;;3.20;2.42;;;;;14.40;101512.00;;;;5047622;28;20211;-79
2022/04/26 04:26:21;;;;;;;4.30;2.47;;;;;14.40;101506.00;;;;5030776;28;20200;-78
2022/04/26 04:28:49;;;;;;;3.33;2.63;;;;;14.40;101509.00;;;;5043313;28;20218;-78
2022/04/26 04:31:16;;;;;;;3.88;2.42;;;;;14.40;101521.00;;;;5048232;28;20279;-79
2022/04/26 04:33:43;;;;;;;4.13;2.70;;;;;14.40;101516.00;;;;5048815;28;20242;-78
2022/04/26 04:36:11;;;;;;;3.65;2.80;;;;;14.40;101522.00;;;;5048965;28;20319;-78
2022/04/26 04:38:38;;;;;;;3.50;2.80;;;;;14.40;101526.00;;;;5046718;28;20269;-78
2022/04/26 04:41:06;;;;;;;5.15;3.28;;;;;14.40;101532.00;;;;5031522;28;20597;-78
2022/04/26 04:43:34;;;;;;;4.93;3.28;;;;;14.40;101526.00;;;;5033667;28;20207;-78
2022/04/26 04:46:02;;;;;;;3.72;2.80;;;;;14.40;101537.00;;;;5040437;28;20207;-78
2022/04/26 04:48:29;;;;;;;5.63;3.65;;;;;14.40;101531.00;;;;5044579;28;20617;-78
2022/04/26 04:50:56;;;;;;;4.45;3.30;;;;;14.40;101541.00;;;;5048046;28;20200;-78
2022/04/26 04:53:23;;;;;;;4.15;3.15;;;;;14.40;101544.00;;;;5044333;28;20216;-78
2022/04/26 04:55:51;;;;;;;4.80;3.60;;;;;14.40;101544.00;;;;5036740;28;20220;-78
2022/04/26 04:58:18;;;;;;;8.25;3.72;;;;;14.40;101546.00;;;;5037036;28;20210;-77
2022/04/26 05:00:47;;;;;;;4.47;3.50;;;;;14.40;101549.00;;;;5039228;28;20208;-77
2022/04/26 05:03:14;;;;;;;7.70;3.78;;;;;14.40;101556.00;;;;5041912;28;20200;-77
2022/04/26 05:05:41;;;;;;;4.22;3.83;;;;;14.40;101563.00;;;;5046795;28;20598;-77
2022/04/26 05:08:11;;;;;;;5.05;3.83;;;;;14.40;101556.00;;;;5047097;28;20195;-77
2022/04/26 05:10:38;;;;;;;6.07;3.72;;;;;14.40;101557.00;;;;5044773;28;20211;-77
2022/04/26 05:13:06;;;;;;;5.22;3.92;;;;;14.40;101559.00;;;;5044742;28;20265;-78
2022/04/26 05:15:34;;;;;;;4.35;3.63;;;;;14.40;101562.00;;;;5038783;28;20224;-77
2022/04/26 05:18:02;;;;;;;2.78;2.55;;;;;14.40;101567.00;;;;5045100;28;20199;-77
2022/04/26 05:20:30;;;;;;;5.00;3.20;;;;;14.40;101575.00;;;;5048302;28;20215;-77
2022/04/26 05:25:42;;;;;;;5.57;3.97;;;;;14.50;101577.00;;;;5047505;28;20947;-77
2022/04/26 05:28:09;;;;;;;7.10;3.47;;;;;14.50;101581.00;;;;5048334;28;20196;-77
2022/04/26 05:30:36;;;;;;;4.93;3.80;;;;;14.50;101575.00;;;;5043760;28;20596;-77
2022/04/26 05:33:05;;;;;;;7.22;3.47;;;;;14.50;101573.00;;;;5039124;28;20219;-78
2022/04/26 05:35:33;;;;;;;5.28;3.85;;;;;14.50;101577.00;;;;5035665;28;20601;-78
2022/04/26 05:38:00;;;;;;;7.70;3.70;;;;;14.50;101582.00;;;;5039382;28;20232;-79
2022/04/26 05:40:28;;;;;;;8.07;3.88;;;;;14.50;101581.00;;;;5049190;28;20238;-78
2022/04/26 05:42:55;;;;;;;6.57;3.22;;;;;14.50;101586.00;;;;5043987;28;20203;-78
2022/04/26 05:45:23;;;;;;;7.40;3.63;;;;;14.50;101585.00;;;;5029473;28;20215;-78
2022/04/26 05:47:51;;;;;;;4.18;3.42;;;;;14.60;101593.00;;;;5046448;28;20253;-77
2022/04/26 05:50:19;;;;;;;5.50;3.78;;;;;14.50;101593.00;;;;5048873;28;20199;-78
2022/04/26 05:52:46;;;;;;;6.95;3.28;;;;;14.60;101592.00;;;;5036839;28;20758;-79
2022/04/26 05:55:14;;;;;;;4.13;2.80;;;;;14.60;101594.00;;;;5058588;28;20192;-77
2022/04/26 05:57:42;;;;;;;5.32;3.00;;;;;14.60;101603.00;;;;5049764;28;20265;-79
2022/04/26 06:00:12;;;;;;;5.97;3.03;;;;;14.60;101597.00;;;;5054407;28;20225;-77
2022/04/26 06:02:39;;;;;;;3.95;2.92;;;;;14.60;101598.00;;;;5036257;28;20266;-79
2022/04/26 06:05:07;;;;;;;5.40;2.97;;;;;14.60;101599.00;;;;5035406;28;20631;-78
2022/04/26 06:07:36;;;;;;;4.03;2.67;;;;;14.60;101596.00;;;;5048119;28;20195;-78
2022/04/26 06:10:03;;;;;;;3.40;3.10;;;;;14.70;101603.00;;;;5048530;28;20198;-78
2022/04/26 06:12:31;;;;;;;3.65;2.90;;;;;14.70;101607.00;;;;5032388;28;20208;-78
2022/04/26 06:14:59;;;;;;;3.80;2.45;;;;;14.70;101604.00;;;;5028472;28;20208;-78
2022/04/26 06:17:27;;;;;;;5.07;2.83;;;;;14.80;101606.00;;;;5047430;28;20206;-79
2022/04/26 06:19:54;;;;;;;6.00;3.10;;;;;14.80;101606.00;;;;5048391;28;20200;-78
2022/04/26 06:22:21;;;;;;;7.10;3.08;;;;;14.80;101616.00;;;;5048728;28;20200;-78
2022/04/26 06:24:51;;;;;;;4.50;3.10;;;;;14.80;101617.00;;;;5033353;28;20206;-78
2022/04/26 06:27:18;;;;;;;5.03;2.90;;;;;14.90;101620.00;;;;5029104;28;20269;-78
2022/04/26 06:29:45;;;;;;;4.53;2.58;;;;;14.90;101620.00;;;;5028807;28;20228;-78
2022/04/26 06:32:12;;;;;;;5.38;2.85;;;;;14.90;101623.00;;;;5034539;28;20274;-78
2022/04/26 06:34:40;;;;;;;3.90;2.50;;;;;14.90;101622.00;;;;5028607;28;20227;-78
2022/04/26 06:37:07;;;;;;;4.95;2.33;;;;;14.90;101625.00;;;;5028288;28;20251;-78
2022/04/26 06:39:34;;;;;;;4.53;2.63;;;;;15.00;101630.00;;;;5028565;28;20211;-78
2022/04/26 06:42:03;;;;;;;3.55;2.03;;;;;15.00;101616.00;;;;5029244;28;20204;-78
2022/04/26 06:44:30;;;;;;;5.85;2.70;;;;;15.00;101632.00;;;;5028166;28;20212;-78
2022/04/26 06:46:57;;;;;;;4.07;2.20;;;;;15.00;101638.00;;;;5043575;28;20199;-76
2022/04/26 06:49:24;;;;;;;4.05;2.45;;;;;15.00;101642.00;;;;5040973;28;20199;-76
2022/04/26 06:51:52;;;;;;;3.60;2.20;;;;;15.00;101637.00;;;;5028845;28;20200;-78
2022/04/26 06:54:19;;;;;;;3.22;2.08;;;;;15.10;101649.00;;;;5028870;28;20231;-76
2022/04/26 06:56:46;;;;;;;2.42;2.13;;;;;15.10;101647.00;;;;5027724;28;20201;-77
2022/04/26 06:59:15;;;;;;;3.88;2.17;;;;;15.00;101648.00;;;;5028011;28;20193;-76
2022/04/26 07:01:42;;;;;;;4.68;2.22;;;;;15.00;101657.00;;;;5028015;28;20207;-76
2022/04/26 07:04:10;;;;;;;3.72;2.25;;;;;15.10;101656.00;;;;5028937;28;20208;-76
2022/04/26 07:06:39;;;;;;;5.38;2.33;;;;;15.10;101660.00;;;;5032379;28;20658;-76
2022/04/26 07:09:06;;;;;;;3.20;2.17;;;;;15.10;101653.00;;;;5047699;28;20200;-76
2022/04/26 07:11:33;;;;;;;4.80;2.17;;;;;15.10;101653.00;;;;5047797;28;20195;-77
2022/04/26 07:14:01;;;;;;;3.35;2.00;;;;;15.10;101657.00;;;;5048477;28;20276;-77
2022/04/26 07:16:29;;;;;;;3.38;2.00;;;;;15.10;101660.00;;;;5048305;28;20713;-77
2022/04/26 07:18:56;;;;;;;4.63;2.35;;;;;15.10;101651.00;;;;5048241;28;20229;-76
2022/04/26 07:21:24;;;;;;;5.55;2.17;;;;;15.10;101662.00;;;;5047794;28;20204;-76
2022/04/26 07:23:51;;;;;;;3.75;2.10;;;;;15.10;101667.00;;;;5047244;28;20206;-78
2022/04/26 07:26:18;;;;;;;4.78;2.00;;;;;15.10;101668.00;;;;5034409;28;20204;-77
2022/04/26 07:28:45;;;;;;;4.18;1.88;;;;;15.10;101664.00;;;;5027604;28;20621;-77
2022/04/26 07:31:14;;;;;;;3.47;1.90;;;;;15.10;101665.00;;;;5029970;28;20211;-77
2022/04/26 07:36:27;;;;;;;4.95;1.90;;;;;15.10;101664.00;;;;5031388;28;20646;-77
2022/04/26 07:38:54;;;;;;;4.30;1.88;;;;;15.10;101666.00;;;;5032295;28;20188;-77
2022/04/26 07:41:21;;;;;;;3.03;2.25;;;;;15.20;101679.00;;;;5034238;28;20204;-77
2022/04/26 07:43:48;;;;;;;3.72;1.65;;;;;15.20;101682.00;;;;5032410;28;20254;-77
2022/04/26 07:46:17;;;;;;;5.75;1.95;;;;;15.20;101682.00;;;;5032812;28;20200;-77
2022/04/26 07:48:45;;;;;;;4.97;2.22;;;;;15.20;101676.00;;;;5031744;28;20298;-77
2022/04/26 07:51:13;;;;;;;3.38;1.92;;;;;15.20;101687.00;;;;5033629;28;20269;-77
2022/04/26 07:53:40;;;;;;;5.30;1.92;;;;;15.30;101687.00;;;;5051556;28;20238;-77
2022/04/26 07:56:09;;;;;;;2.00;1.58;;;;;15.30;101686.00;;;;5052275;28;20207;-77
2022/04/26 07:58:36;;;;;;;5.03;1.77;;;;;15.30;101683.00;;;;5051404;28;20208;-77
2022/04/26 08:01:04;;;;;;;3.55;2.20;;;;;15.40;101686.00;;;;5051945;28;20203;-77
2022/04/26 08:03:33;;;;;;;3.97;2.03;;;;;15.40;101693.00;;;;5050970;28;20635;-77
2022/04/26 08:06:02;;;;;;;3.15;2.03;;;;;15.40;101696.00;;;;5049014;28;20204;-78
2022/04/26 08:08:30;;;;;;;6.63;2.20;;;;;15.50;101697.00;;;;5030790;28;20258;-77
2022/04/26 08:10:57;;;;;;;2.60;1.67;;;;;15.50;101704.00;;;;5033878;28;20212;-77
2022/04/26 08:13:24;;;;;;;4.88;2.00;;;;;15.60;101697.00;;;;5051060;28;20252;-77
2022/04/26 08:15:51;;;;;;;3.80;2.47;;;;;15.70;101700.00;;;;5050919;28;20203;-77
2022/04/26 08:18:19;;;;;;;5.05;1.70;;;;;15.70;101701.00;;;;5051197;28;20200;-77
2022/04/26 08:20:46;;;;;;;4.07;2.30;;;;;15.80;101715.00;;;;5036364;28;20659;-77
2022/04/26 08:23:14;;;;;;;3.42;1.95;;;;;15.90;101718.00;;;;5031741;28;20208;-77
2022/04/26 08:28:28;;;;;;;2.83;1.95;;;;;16.10;101720.00;;;;5050917;28;20210;-77
2022/04/26 08:30:56;;;;;;;2.97;2.50;;;;;16.10;101724.00;;;;5051453;28;20206;-77
2022/04/26 08:33:23;;;;;;;3.80;2.00;;;;;16.20;101722.00;;;;5049888;28;20302;-77
2022/04/26 08:35:51;;;;;;;5.25;2.92;;;;;16.30;101737.00;;;;5051546;28;20216;-77
2022/04/26 08:38:19;;;;;;;2.15;1.88;;;;;16.40;101722.00;;;;5051056;28;20235;-78
2022/04/26 08:40:47;;;;;;;5.40;2.03;;;;;16.50;101730.00;;;;5048534;28;20661;-77
2022/04/26 08:43:14;;;;;;;3.33;1.92;;;;;16.60;101732.00;;;;5031591;28;20208;-78
2022/04/26 08:45:42;;;;;;;7.60;2.63;;;;;16.60;101734.00;;;;5030334;28;20208;-78
2022/04/26 08:51:03;;;;;;;9.00;1.90;;;;;16.80;101741.00;;;;5030676;28;20346;-78
2022/04/26 08:53:33;;;;;;;2.83;2.10;;;;;16.90;101729.00;;;;5029494;28;20746;-78
2022/04/26 08:56:03;;;;;;;3.50;2.03;;;;;17.00;101732.00;;;;5031208;28;20582;-77
2022/04/26 08:58:32;;;;;;;2.78;1.88;;;;;17.10;101737.00;;;;5030368;28;20211;-78
2022/04/26 09:01:11;;;;;;;3.92;2.25;;;;;17.10;101745.00;;;;5030707;28;20258;-78
2022/04/26 09:03:40;;;;;;;2.58;1.73;;;;;17.30;101741.00;;;;5030617;28;20208;-78
2022/04/26 09:06:11;;;;;;;3.65;2.60;;;;;17.40;101757.00;;;;5038647;28;20210;-78
2022/04/26 09:08:40;;;;;;;2.03;1.80;;;;;17.50;101750.00;;;;5049750;28;20199;-78
2022/04/26 09:11:26;;;;;;;5.00;2.60;;;;;17.50;101753.00;;;;5050166;28;20226;-78
2022/04/26 09:13:54;;;;;;;3.05;2.03;;;;;17.70;101759.00;;;;5032812;28;20224;-78
2022/04/26 09:16:22;;;;;;;3.25;2.58;;;;;17.80;101758.00;;;;5030536;28;20282;-78
2022/04/26 09:18:55;;;;;;;4.55;2.58;;;;;17.80;101765.00;;;;5030924;28;20215;-77
2022/04/26 09:21:26;;;;;;;6.47;2.42;;;;;17.90;101764.00;;;;5030208;28;20662;-77
2022/04/26 09:23:58;;;;;;;3.78;2.42;;;;;17.90;101765.00;;;;5045015;28;20203;-77
2022/04/26 09:26:32;;;;;;;3.50;2.15;;;;;17.90;101765.00;;;;5049523;28;20633;-78
2022/04/26 09:28:59;;;;;;;3.08;2.15;;;;;17.90;101769.00;;;;5050217;28;20200;-78
2022/04/26 09:31:29;;;;;;;5.82;2.75;;;;;18.00;101769.00;;;;5049464;28;20298;-78
2022/04/26 09:33:57;;;;;;;3.05;2.47;;;;;18.00;101777.00;;;;5049796;28;20254;-77
2022/04/26 09:36:28;;;;;;;3.00;2.05;;;;;18.00;101776.00;;;;5049658;28;20660;-78
2022/04/26 09:38:59;;;;;;;3.13;2.42;;;;;18.00;101773.00;;;;5049796;28;20590;-78
2022/04/26 09:41:27;;;;;;;4.25;2.38;;;;;18.00;101777.00;;;;5049235;28;20200;-77
2022/04/26 09:44:02;;;;;;;3.83;2.38;;;;;18.10;101774.00;;;;5036536;28;20250;-77
2022/04/26 09:46:49;;;;;;;3.70;2.10;;;;;18.00;101776.00;;;;5029862;28;20291;-77
2022/04/26 09:49:19;;;;;;;3.65;2.85;;;;;18.10;101783.00;;;;5029783;28;20593;-78
2022/04/26 09:51:47;;;;;;;3.70;2.13;;;;;18.20;101784.00;;;;5034319;28;20203;-78
2022/04/26 09:54:16;;;;;;;2.53;2.13;;;;;18.20;101784.00;;;;5049127;28;20231;-78
2022/04/26 09:56:46;;;;;;;2.35;2.15;;;;;18.30;101782.00;;;;5048977;28;20208;-78
2022/04/26 09:59:16;;;;;;;4.72;2.50;;;;;18.40;101793.00;;;;5050044;28;20199;-78
2022/04/26 10:01:46;;;;;;;3.90;2.47;;;;;18.50;101783.00;;;;5049150;28;20281;-77
2022/04/26 10:04:17;;;;;;;2.17;1.92;;;;;18.50;101791.00;;;;5049392;28;20199;-78
2022/04/26 10:06:47;;;;;;;3.28;2.38;;;;;18.70;101787.00;;;;5035367;28;20618;-78
2022/04/26 10:09:17;;;;;;;3.78;1.90;;;;;18.70;101789.00;;;;5030085;28;20639;-78
2022/04/26 10:11:44;;;;;;;2.88;1.73;;;;;18.80;101792.00;;;;5028657;28;20200;-78
2022/04/26 10:14:13;;;;;;;3.60;1.38;;;;;18.80;101784.00;;;;5037926;28;20235;-78
2022/04/26 10:16:41;;;;;;;2.50;1.77;;;;;18.80;101788.00;;;;5048631;28;20212;-78
2022/04/26 10:19:09;;;;;;;2.60;1.77;;;;;18.80;101784.00;;;;5048333;28;20207;-77
2022/04/26 10:21:47;;;;;;;2.58;1.90;;;;;18.70;101786.00;;;;5049368;28;20192;-78
2022/04/26 10:24:22;;;;;;;2.13;1.92;;;;;18.80;101784.00;;;;5048882;28;20199;-77
2022/04/26 10:26:50;;;;;;;2.45;1.52;;;;;18.80;101793.00;;;;5049519;28;20194;-78
2022/04/26 10:29:23;;;;;;;3.95;2.10;;;;;18.80;101793.00;;;;5048484;28;20674;-77
2022/04/26 10:31:58;;;;;;;4.82;2.50;;;;;18.80;101790.00;;;;5049278;28;20654;-78
2022/04/26 10:34:29;;;;;;;2.97;2.08;;;;;18.70;101790.00;;;;5048172;28;20329;-78
2022/04/26 10:36:59;;;;;;;2.85;1.77;;;;;18.80;101789.00;;;;5048885;28;20234;-78
2022/04/26 10:39:31;;;;;;;3.05;1.90;;;;;18.70;101793.00;;;;5047979;28;20649;-78
2022/04/26 10:42:00;;;;;;;2.60;1.90;;;;;18.80;101800.00;;;;5034495;28;20291;-78
2022/04/26 10:44:48;;;;;;;3.08;1.80;;;;;18.70;101802.00;;;;5028205;28;20258;-78
2022/04/26 10:47:27;;;;;;;7.43;2.15;;;;;18.80;101794.00;;;;5025990;28;20274;-78
2022/04/26 10:49:55;;;;;;;2.78;1.70;;;;;19.00;101789.00;;;;5044368;28;20215;-78
2022/04/26 10:52:43;;;;;;;4.13;1.65;;;;;18.90;101803.00;;;;5028749;28;20299;-78
2022/04/26 10:55:20;;;;;;;2.40;1.50;;;;;19.00;101814.00;;;;5028644;28;20223;-78
2022/04/26 10:57:50;;;;;;;3.72;1.70;;;;;19.20;101812.00;;;;5028410;28;20269;-77
2022/04/26 11:00:20;;;;;;;2.30;1.70;;;;;19.30;101809.00;;;;5028715;28;20242;-76
2022/04/26 11:02:48;;;;;;;2.00;1.60;;;;;19.30;101817.00;;;;5028428;28;20205;-76
2022/04/26 11:05:17;;;;;;;3.25;1.42;;;;;19.40;101819.00;;;;5035473;28;20215;-76
2022/04/26 11:07:46;;;;;;;3.20;1.58;;;;;19.50;101823.00;;;;5028552;28;20197;-77
2022/04/26 11:10:16;;;;;;;3.35;1.80;;;;;19.50;101823.00;;;;5028219;28;20215;-78
2022/04/26 11:12:43;;;;;;;1.90;1.40;;;;;19.60;101824.00;;;;5028060;28;20207;-78
2022/04/26 11:15:13;;;;;;;1.52;1.42;;;;;19.60;101815.00;;;;5028381;28;20220;-78
2022/04/26 11:17:41;;;;;;;1.92;1.45;;;;;19.70;101827.00;;;;5027351;28;20647;-78
2022/04/26 11:20:13;;;;;;;2.92;1.65;;;;;19.70;101823.00;;;;5028467;28;20203;-78
2022/04/26 11:22:46;;;;;;;2.60;1.50;;;;;19.70;101821.00;;;;5040871;28;20549;-78
2022/04/26 11:28:12;;;;;;;2.10;1.40;;;;;19.90;101834.00;;;;5047647;28;20202;-75
2022/04/26 11:30:42;;;;;;;2.85;1.45;;;;;19.90;101832.00;;;;5047946;28;20265;-76
2022/04/26 11:33:11;;;;;;;2.25;1.80;;;;;19.90;101836.00;;;;5048022;28;20244;-76
2022/04/26 11:35:40;;;;;;;3.58;1.67;;;;;20.00;101832.00;;;;5047799;28;20636;-77
2022/04/26 11:38:10;;;;;;;2.95;1.25;;;;;20.00;101825.00;;;;5048477;28;20593;-77
2022/04/26 11:40:42;;;;;;;2.35;1.65;;;;;20.00;101826.00;;;;5027482;28;20203;-77
2022/04/26 11:43:11;;;;;;;4.00;1.50;;;;;20.10;101844.00;;;;5028400;28;20204;-77
2022/04/26 11:45:39;;;;;;;1.70;1.50;;;;;20.20;101831.00;;;;5028004;28;20605;-76
2022/04/26 11:48:10;;;;;;;2.15;1.95;;;;;20.20;101833.00;;;;5028244;28;20203;-77
2022/04/26 11:50:38;;;;;;;1.70;1.30;;;;;20.30;101831.00;;;;5027896;28;20691;-76
2022/04/26 11:53:07;;;;;;;2.53;1.75;;;;;20.40;101834.00;;;;5041797;28;20674;-76
2022/04/26 11:55:35;;;;;;;3.55;1.95;;;;;20.50;101845.00;;;;5047246;28;20697;-76
2022/04/26 11:58:13;;;;;;;2.30;1.30;;;;;20.50;101855.00;;;;5048213;28;20207;-76
2022/04/26 12:00:55;;;;;;;1.50;1.40;;;;;20.60;101851.00;;;;5047908;28;20211;-76
2022/04/26 12:03:24;;;;;;;2.42;1.40;;;;;20.80;101857.00;;;;5047136;28;20696;-76
2022/04/26 12:05:55;;;;;;;3.58;1.88;;;;;20.90;101858.00;;;;5033122;28;20208;-76
2022/04/26 12:08:23;;;;;;;2.03;1.55;;;;;20.90;101851.00;;;;5028206;28;20208;-76
2022/04/26 12:10:50;;;;;;;6.15;1.90;;;;;21.00;101852.00;;;;5035074;28;20635;-76
2022/04/26 12:13:30;;;;;;;2.15;1.38;;;;;20.90;101858.00;;;;5045979;28;20212;-76
2022/04/26 12:16:14;;;;;;;2.28;1.60;;;;;21.10;101856.00;;;;5047481;28;20739;-76
2022/04/26 12:18:49;;;;;;;2.42;1.65;;;;;21.20;101880.00;;;;5050363;28;20673;-76
2022/04/26 12:21:17;;;;;;;1.88;1.48;;;;;21.30;101874.00;;;;5051709;28;20649;-77
2022/04/26 12:23:45;;;;;;;2.42;1.45;;;;;21.30;101885.00;;;;5051441;28;20282;-76
2022/04/26 12:26:13;;;;;;;1.95;1.35;;;;;21.30;101870.00;;;;5051056;28;20204;-76
2022/04/26 12:28:51;;;;;;;1.50;1.30;;;;;21.30;101871.00;;;;5050941;28;20664;-76
2022/04/26 12:31:26;;;;;;;2.10;1.38;;;;;21.40;101881.00;;;;5050991;28;20207;-77
2022/04/26 12:34:12;;;;;;;2.05;1.30;;;;;21.40;101872.00;;;;5051637;28;20195;-77
2022/04/26 12:36:57;;;;;;;3.45;1.75;;;;;21.40;101883.00;;;;5050338;28;20243;-76
2022/04/26 12:39:27;;;;;;;1.98;1.50;;;;;21.50;101875.00;;;;5050065;28;20196;-76
2022/04/26 12:41:58;;;;;;;2.30;1.52;;;;;21.60;101884.00;;;;5047792;28;20257;-77
2022/04/26 12:44:26;;;;;;;1.98;1.65;;;;;21.60;101886.00;;;;5056556;28;20265;-76
2022/04/26 12:50:29;;;;;;;2.30;1.40;;;;;21.50;101881.00;;;;5053629;28;20203;-77
2022/04/26 12:52:58;;;;;;;1.60;1.50;;;;;21.60;101877.00;;;;4970660;28;20297;-77
2022/04/26 12:55:31;;;;;;;2.78;1.48;;;;;21.60;101877.00;;;;4972806;28;20745;-78
2022/04/26 12:58:00;;;;;;;2.25;1.38;;;;;21.60;101879.00;;;;5007537;28;20198;-78
2022/04/26 13:00:29;;;;;;;2.33;1.63;;;;;21.60;101872.00;;;;5035772;28;20208;-77
2022/04/26 13:03:00;;;;;;;1.65;1.50;;;;;21.60;101873.00;;;;5030709;28;20211;-77
2022/04/26 13:05:29;;;;;;;2.78;1.83;;;;;21.70;101872.00;;;;5039939;28;20212;-77
2022/04/26 13:07:56;;;;;;;4.15;1.40;;;;;21.60;101869.00;;;;5031323;28;20204;-77
2022/04/26 13:10:24;;;;;;;1.67;1.50;;;;;21.60;101873.00;;;;5036128;28;20195;-78
2022/04/26 13:12:51;;;;;;;2.83;1.60;;;;;21.60;101874.00;;;;5052320;28;20219;-78
2022/04/26 13:15:23;;;;;;;2.45;1.30;;;;;21.70;101865.00;;;;5053193;28;20264;-77
2022/04/26 13:17:53;;;;;;;1.73;1.40;;;;;21.70;101864.00;;;;5056873;28;20665;-77
2022/04/26 13:20:20;;;;;;;2.15;1.42;;;;;21.70;101864.00;;;;5054954;28;20204;-79
2022/04/26 13:22:48;;;;;;;3.70;1.50;;;;;21.80;101864.00;;;;5058209;28;20587;-79
2022/04/26 13:25:15;;;;;;;2.25;1.30;;;;;21.80;101865.00;;;;5057810;28;20214;-79
2022/04/26 13:27:42;;;;;;;1.52;1.30;;;;;21.90;101869.00;;;;5057245;28;20207;-79
2022/04/26 13:30:10;;;;;;;2.08;1.63;;;;;22.00;101856.00;;;;5053903;28;20199;-80
2022/04/26 13:32:38;;;;;;;1.80;1.30;;;;;22.20;101861.00;;;;5059561;28;20203;-78
2022/04/26 13:35:07;;;;;;;1.58;1.10;;;;;22.30;101872.00;;;;5057960;28;20228;-79
2022/04/26 13:37:35;;;;;;;2.35;1.10;;;;;22.50;101873.00;;;;5060472;28;20236;-78
2022/04/26 13:40:03;;;;;;;2.47;1.45;;;;;22.70;101875.00;;;;5056255;28;21247;-79
2022/04/26 13:42:31;;;;;;;4.15;1.30;;;;;23.10;101876.00;;;;5039696;28;20235;-79
2022/04/26 13:44:59;;;;;;;1.55;1.30;;;;;23.30;101883.00;;;;5040676;28;20234;-79
2022/04/26 13:47:27;;;;;;;1.98;1.48;;;;;23.70;101872.00;;;;5039238;28;20604;-80
2022/04/26 13:49:54;;;;;;;1.67;1.23;;;;;24.10;101870.00;;;;5037138;28;20594;-79
2022/04/26 13:52:24;;;;;;;2.00;1.45;;;;;24.50;101870.00;;;;5042284;28;20598;-78
2022/04/26 13:54:51;;;;;;;4.80;2.03;;;;;24.90;101864.00;;;;5059500;28;20257;-79
2022/04/26 13:57:19;;;;;;;3.58;1.55;;;;;25.20;101879.00;;;;5059392;28;20209;-78
2022/04/26 13:59:47;;;;;;;3.17;1.20;;;;;25.40;101877.00;;;;5061962;28;20200;-78
2022/04/26 14:02:14;;;;;;;3.28;1.63;;;;;25.90;101874.00;;;;5060505;28;20207;-78
2022/04/26 14:04:42;;;;;;;1.48;1.35;;;;;26.30;101880.00;;;;5060245;28;20219;-78
2022/04/26 14:07:09;;;;;;;1.25;1.15;;;;;26.60;101881.00;;;;5046540;28;20211;-77
2022/04/26 14:09:38;;;;;;;1.00;0.90;;;;;26.90;101877.00;;;;5036106;28;20238;-78
2022/04/26 14:12:08;;;;;;;4.28;1.10;;;;;27.00;101879.00;;;;5051397;28;20556;-75
2022/04/26 14:22:54;;;;;;;1.33;1.13;;;;;26.90;101884.00;;;;5051415;28;20203;-78
2022/04/26 14:25:23;;;;;;;1.10;1.00;;;;;26.70;101878.00;;;;5040477;28;20239;-79
2022/04/26 14:27:51;;;;;;;1.20;0.80;;;;;26.60;101881.00;;;;5052707;28;20204;-78
2022/04/26 14:30:18;;;;;;;1.00;0.85;;;;;26.50;101875.00;;;;5049905;28;20207;-78
2022/04/26 14:32:46;;;;;;;1.65;1.05;;;;;26.50;101881.00;;;;5053293;28;20207;-79
2022/04/26 14:35:13;;;;;;;1.38;0.95;;;;;26.70;101878.00;;;;5048248;28;20643;-79
2022/04/26 14:37:41;;;;;;;1.50;1.13;;;;;27.00;101879.00;;;;5035331;28;20239;-79
2022/04/26 14:40:10;;;;;;;1.00;0.90;;;;;27.30;101879.00;;;;5039497;28;20204;-79
2022/04/26 14:42:40;;;;;;;1.75;1.10;;;;;27.50;101878.00;;;;5037220;28;20204;-78
2022/04/26 14:45:08;;;;;;;1.10;0.95;;;;;27.60;101879.00;;;;5037121;28;20287;-79
2022/04/26 14:47:35;;;;;;;1.00;0.90;;;;;27.70;101884.00;;;;5056924;28;20207;-79
2022/04/26 14:50:03;;;;;;;1.08;0.98;;;;;27.70;101876.00;;;;5057974;28;20199;-79
2022/04/26 14:52:31;;;;;;;1.30;1.10;;;;;27.70;101877.00;;;;5048055;28;20227;-79
2022/04/26 14:55:01;;;;;;;12.20;1.33;;;;;27.90;101879.00;;;;5035940;28;20200;-80
2022/04/26 14:57:29;;;;;;;3.30;1.30;;;;;28.50;101883.00;;;;5037045;28;20301;-79
2022/04/26 15:00:05;;;;;;;1.52;1.02;;;;;29.00;101894.00;;;;5035280;28;20296;-79
2022/04/26 15:02:38;;;;;;;1.77;1.02;;;;;29.20;101899.00;;;;5040699;28;20226;-79
2022/04/26 15:05:07;;;;;;;2.05;1.27;;;;;29.10;101882.00;;;;5058518;28;20203;-80
2022/04/26 15:09:42;;;;;;;1.40;0.93;;;;;29.20;101891.00;;;;5055218;28;20282;-79
2022/04/26 15:10:24;;;;;;;1.70;1.40;;;;;29.20;101900.00;;;;5030178;28;20663;-78
2022/04/26 15:18:22;;;;;;;1.35;1.20;;;;;29.20;101893.00;;;;5028476;28;20215;-81
2022/04/26 15:20:50;;;;;;;1.25;1.10;;;;;29.30;101893.00;;;;5042696;28;20204;-81
2022/04/26 15:23:18;;;;;;;2.38;1.65;;;;;29.30;101900.00;;;;5048071;28;20200;-80
2022/04/26 15:25:50;;;;;;;1.45;1.20;;;;;29.20;101910.00;;;;5048328;28;20199;-81
2022/04/26 15:28:18;;;;;;;2.20;1.30;;;;;29.00;101909.00;;;;5048427;28;20237;-81
2022/04/26 15:30:48;;;;;;;1.73;1.27;;;;;28.60;101913.00;;;;5048250;28;20286;-80
2022/04/26 15:33:16;;;;;;;3.45;1.50;;;;;28.10;101915.00;;;;5048105;28;20210;-81
2022/04/26 15:35:43;;;;;;;3.63;1.70;;;;;27.60;101913.00;;;;5047983;28;20227;-80
2022/04/26 15:38:12;;;;;;;1.98;1.60;;;;;27.10;101914.00;;;;5048297;28;20236;-80
2022/04/26 15:40:40;;;;;;;1.45;1.33;;;;;26.70;101922.00;;;;5030890;28;20286;-80
2022/04/26 15:43:08;;;;;;;3.72;1.45;;;;;26.20;101907.00;;;;5028561;28;20196;-80
2022/04/26 15:45:36;;;;;;;2.45;1.58;;;;;25.80;101915.00;;;;5028159;28;20211;-79
2022/04/26 15:48:05;;;;;;;1.63;1.52;;;;;25.30;101920.00;;;;5026883;28;20208;-80
2022/04/26 15:50:33;;;;;;;2.35;1.65;;;;;24.90;101914.00;;;;5028293;28;20215;-81
2022/04/26 15:53:00;;;;;;;1.92;1.40;;;;;24.50;101909.00;;;;5041664;28;20200;-80
2022/04/26 15:55:27;;;;;;;2.08;1.70;;;;;24.20;101923.00;;;;5051866;28;20212;-81
2022/04/26 15:57:55;;;;;;;3.85;1.50;;;;;23.80;101921.00;;;;5052737;28;20203;-80
2022/04/26 16:00:22;;;;;;;2.17;1.38;;;;;23.50;101919.00;;;;5051700;28;20338;-80
2022/04/26 16:02:51;;;;;;;3.38;2.03;;;;;23.30;101928.00;;;;5046878;28;20629;-80
2022/04/26 16:05:20;;;;;;;2.22;1.55;;;;;23.00;101925.00;;;;5032288;28;20197;-80
2022/04/26 16:07:47;;;;;;;3.20;1.35;;;;;22.70;101926.00;;;;5031976;28;20717;-80
2022/04/26 16:21:13;;;;;;;2.65;1.60;;;;;21.40;101928.00;;;;5044544;28;20681;-80
2022/04/26 16:23:40;;;;;;;2.80;2.00;;;;;21.30;101929.00;;;;5044228;28;20196;-80
2022/04/26 16:26:07;;;;;;;2.83;1.55;;;;;21.10;101924.00;;;;5044223;28;20740;-79
2022/04/26 16:28:36;;;;;;;2.30;1.63;;;;;20.90;101923.00;;;;5038012;28;20202;-81
2022/04/26 16:31:04;;;;;;;2.65;1.42;;;;;20.80;101925.00;;;;5040252;28;20264;-78
2022/04/26 16:33:32;;;;;;;1.85;1.45;;;;;20.70;101921.00;;;;5029686;28;20208;-78
2022/04/26 16:35:59;;;;;;;1.63;1.52;;;;;20.60;101930.00;;;;5021250;28;20219;-79
2022/04/26 16:38:28;;;;;;;2.42;1.50;;;;;20.50;101928.00;;;;5025488;28;20207;-81